Messwerte Zabol

Temperatur

Temperatur
°C
1573565400 17.00 17.00 17
1573569000 18.00 18.00 15
1573572600 19.00 19.00 13
1573576200 20.00 20.00 13
1573579800 21.00 21.00 11
1573583400 22.00 22.00 10
1573587000 23.00 23.00 8
1573590600 0.00 0.00 10
1573594200 1.00 1.00 9
1573597800 2.00 2.00
1573601400 3.00 3.00
1573605000 4.00 4.00 5
1573608600 5.00 5.00
1573612200 6.00 6.00 4
1573615800 7.00 7.00 6
1573619400 8.00 8.00 9
1573623000 9.00 9.00 12
1573626600 10.00 10.00 15
1573630200 11.00 11.00 17
1573633800 12.00 12.00 18
1573637400 13.00 13.00 19
1573641000 14.00 14.00 20
1573644600 15.00 15.00 21
1573648200 16.00 16.00 21

Aktuellste Messwerte

Wettercharakter
Wetter: meist klar
Temperatur
18 °C
Feuchtigkeit
20 %
Wind
5 km/hWindrichtung: Ost
Luftdruck
1021 hPa
Messzeit: 13. November 2019, 16.30Datenquelle: METAR

Weitere Messstationen in der Nähe

Messstation Temperatur Entfernung
Zahedan 12 °C 185 km
Birjand 14 °C 295 km
Herat 12 °C 359 km
Kandahar 15 °C 418 km
Iranshahr 22 °C 434 km
Kerman 10 °C 440 km

Wind

Windrichtung Böen Mittelwind
° km/h km/h
1573565400 17.00 16.00 - 17.00 330° 15
1573569000 18.00 17.00 - 18.00 320° 15
1573572600 19.00 18.00 - 19.00 330° 20
1573576200 20.00 19.00 - 20.00 330° 20
1573579800 21.00 20.00 - 21.00 310° 15
1573583400 22.00 21.00 - 22.00 320° 15
1573587000 23.00 22.00 - 23.00 300° 15
1573590600 0.00 23.00 - 0.00 330° 15
1573594200 1.00 0.00 - 1.00 340° 20
1573597800 2.00 1.00 - 2.00
1573601400 3.00 2.00 - 3.00
1573605000 4.00 3.00 - 4.00 280° 10
1573608600 5.00 4.00 - 5.00
1573612200 6.00 5.00 - 6.00 300° 10
1573615800 7.00 6.00 - 7.00 320° 15
1573619400 8.00 7.00 - 8.00 340° 20
1573623000 9.00 8.00 - 9.00 350° 20
1573626600 10.00 9.00 - 10.00 350° 25
1573630200 11.00 10.00 - 11.00 10° 20
1573633800 12.00 11.00 - 12.00 10° 20
1573637400 13.00 12.00 - 13.00 20° 15
1573641000 14.00 13.00 - 14.00 10° 15
1573644600 15.00 14.00 - 15.00 20° 10
1573648200 16.00 15.00 - 16.00 90° 10

Ihre Wetterstation

Fehlt Ihre Wetterstation auf unserem Portal?

Schreiben Sie an network@meteonews.ch

Klima

Wann ist es am wärmsten? Wann regnet es am wenigsten? Unsere Klimadaten geben Auskunft.